Time;durP1;ratioP1;P1;durP2;ratioP2;P2;SDS_P1;SDS_P2;PMS_P1;PMS_P2;Temp;Humidity;BMP_temperature;BMP_pressure;BME280_temperature;BME280_humidity;BME280_pressure;Samples;Min_cycle;Max_cycle;Signal;HPM_P1;HPM_P2
2022/07/25 00:02:08;;;;;;;0.10;0.10;;;;;;;25.48;53.65;101112.22;5012863;28;20021;-77
2022/07/25 00:04:35;;;;;;;0.20;0.20;;;;;;;25.48;53.30;101108.63;5013704;28;20026;-78
2022/07/25 00:07:01;;;;;;;0.52;0.52;;;;;;;25.56;53.19;101102.56;5009797;28;20030;-80
2022/07/25 00:09:27;;;;;;;0.10;0.10;;;;;;;25.57;52.59;101104.31;5015908;28;20030;-80
2022/07/25 00:11:53;;;;;;;0.10;0.10;;;;;;;25.54;53.14;101099.13;5013151;28;20030;-80
2022/07/25 00:14:19;;;;;;;0.47;0.47;;;;;;;25.54;52.72;101099.13;5013041;28;20025;-79
2022/07/25 00:16:45;;;;;;;0.00;0.00;;;;;;;25.52;52.67;101091.97;5012602;28;20525;-80
2022/07/25 00:19:12;;;;;;;1.08;0.70;;;;;;;25.57;52.50;101093.44;5012713;28;20041;-78
2022/07/25 00:21:38;;;;;;;0.10;0.10;;;;;;;25.56;53.01;101091.72;5012361;28;20081;-79
2022/07/25 00:24:04;;;;;;;0.20;0.20;;;;;;;25.50;52.76;101087.66;5015668;28;20033;-78
2022/07/25 00:26:30;;;;;;;0.10;0.10;;;;;;;25.48;52.77;101081.50;5018027;28;20192;-78
2022/07/25 00:28:57;;;;;;;0.08;0.08;;;;;;;25.45;53.43;101077.16;5016002;28;20044;-78
2022/07/25 00:31:23;;;;;;;0.10;0.10;;;;;;;25.42;53.20;101082.84;5012704;28;20080;-78
2022/07/25 00:33:49;;;;;;;0.45;0.45;;;;;;;25.39;53.13;101074.09;5012960;28;20030;-78
2022/07/25 00:36:15;;;;;;;0.10;0.10;;;;;;;25.32;53.86;101073.66;5012900;28;20026;-78
2022/07/25 00:38:41;;;;;;;0.00;0.00;;;;;;;25.29;53.55;101068.50;5010858;28;20030;-78
2022/07/25 00:41:07;;;;;;;0.30;0.30;;;;;;;25.22;53.61;101062.69;5010675;28;20084;-78
2022/07/25 00:43:33;;;;;;;0.00;0.00;;;;;;;25.21;54.27;101055.56;5012898;28;20120;-78
2022/07/25 00:46:00;;;;;;;0.05;0.05;;;;;;;25.16;54.52;101065.88;5012379;28;20436;-78
2022/07/25 00:48:27;;;;;;;0.10;0.10;;;;;;;25.12;54.17;101067.97;5013244;28;20033;-78
2022/07/25 00:50:54;;;;;;;0.00;0.00;;;;;;;25.07;54.56;101063.91;5011938;28;20029;-78
2022/07/25 00:53:20;;;;;;;0.03;0.03;;;;;;;25.03;54.71;101063.25;5011484;28;20517;-78
2022/07/25 00:55:46;;;;;;;0.20;0.20;;;;;;;24.97;55.33;101064.63;5011508;28;20513;-78
2022/07/25 00:58:12;;;;;;;0.00;0.00;;;;;;;24.94;54.97;101058.56;5012071;28;20057;-78
2022/07/25 01:00:39;;;;;;;0.43;0.43;;;;;;;24.91;55.39;101045.25;5012339;28;20104;-78
2022/07/25 01:03:05;;;;;;;0.10;0.10;;;;;;;24.88;55.20;101043.63;5011778;28;20022;-79
2022/07/25 01:05:31;;;;;;;0.10;0.10;;;;;;;24.86;55.09;101048.31;5012470;28;20030;-79
2022/07/25 01:07:57;;;;;;;0.20;0.20;;;;;;;24.84;55.37;101051.13;5008226;28;20125;-78
2022/07/25 01:10:23;;;;;;;0.10;0.10;;;;;;;24.80;55.49;101041.53;5011375;28;20029;-79
2022/07/25 01:12:52;;;;;;;0.00;0.00;;;;;;;24.78;56.22;101032.66;5011600;28;20081;-79
2022/07/25 01:15:20;;;;;;;0.20;0.20;;;;;;;24.75;55.91;101027.47;5012346;28;20548;-79
2022/07/25 01:17:47;;;;;;;0.00;0.00;;;;;;;24.72;55.67;101022.28;5012397;28;20034;-79
2022/07/25 01:22:52;;;;;;;2.38;0.47;;;;;;;24.69;55.40;101028.81;5109936;27;20398;-80
2022/07/25 01:25:20;;;;;;;0.20;0.20;;;;;;;24.67;55.49;101028.06;5091912;28;20064;-80
2022/07/25 01:27:47;;;;;;;0.10;0.10;;;;;;;24.67;55.33;101025.38;5095707;28;20020;-80
2022/07/25 01:30:15;;;;;;;0.00;0.00;;;;;;;24.66;55.56;101023.63;5091017;28;20266;-80
2022/07/25 01:32:43;;;;;;;0.40;0.40;;;;;;;24.65;55.70;101012.88;5089912;28;20037;-80
2022/07/25 01:35:09;;;;;;;0.17;0.17;;;;;;;24.62;55.83;101018.53;5092779;28;20066;-80
2022/07/25 01:37:35;;;;;;;0.43;0.43;;;;;;;24.60;55.95;101015.06;5094051;28;20024;-80
2022/07/25 01:40:02;;;;;;;0.10;0.10;;;;;;;24.58;56.08;101007.06;5093377;28;20036;-80
2022/07/25 01:42:29;;;;;;;0.10;0.10;;;;;;;24.59;56.08;101007.94;5090252;28;20017;-80
2022/07/25 01:44:55;;;;;;;0.10;0.10;;;;;;;24.57;55.40;100990.94;5088885;28;20492;-80
2022/07/25 01:47:21;;;;;;;0.10;0.10;;;;;;;24.55;55.71;100986.50;5090848;28;20028;-80
2022/07/25 01:49:47;;;;;;;0.15;0.15;;;;;;;24.54;56.08;100992.88;5094999;28;20034;-80
2022/07/25 01:52:14;;;;;;;0.25;0.25;;;;;;;24.53;56.05;100991.16;5091383;28;20032;-81
2022/07/25 01:54:40;;;;;;;0.10;0.10;;;;;;;24.52;55.74;100994.00;5094628;28;20496;-81
2022/07/25 01:57:07;;;;;;;0.10;0.10;;;;;;;24.50;55.79;100977.88;5090958;28;20024;-80
2022/07/25 01:59:37;;;;;;;0.10;0.10;;;;;;;24.51;55.71;100987.72;5088718;28;20104;-80
2022/07/25 02:02:05;;;;;;;0.05;0.05;;;;;;;24.47;55.65;100975.38;5087309;28;20697;-80
2022/07/25 02:04:31;;;;;;;0.15;0.15;;;;;;;24.48;55.67;100968.97;5091780;28;20028;-80
2022/07/25 02:06:57;;;;;;;0.10;0.10;;;;;;;24.49;55.80;100965.28;5088903;28;20442;-80
2022/07/25 02:09:23;;;;;;;0.20;0.20;;;;;;;24.49;55.79;100968.00;5092587;28;20028;-80
2022/07/25 02:11:49;;;;;;;0.30;0.30;;;;;;;24.48;55.79;100946.47;5089445;28;20025;-80
2022/07/25 02:14:16;;;;;;;0.00;0.00;;;;;;;24.48;55.56;100955.44;5088048;28;20024;-80
2022/07/25 02:16:42;;;;;;;0.03;0.03;;;;;;;24.48;55.72;100946.47;5090321;28;20032;-80
2022/07/25 02:19:08;;;;;;;0.10;0.10;;;;;;;24.45;56.47;100950.28;5091719;28;20074;-80
2022/07/25 02:21:35;;;;;;;0.00;0.00;;;;;;;24.43;55.26;100952.22;5088417;28;20082;-80
2022/07/25 02:24:02;;;;;;;0.00;0.00;;;;;;;24.40;55.34;100944.34;5088962;28;20032;-80
2022/07/25 02:26:28;;;;;;;0.00;0.00;;;;;;;24.40;55.86;100941.66;5090571;28;20025;-80
2022/07/25 02:28:54;;;;;;;0.10;0.10;;;;;;;24.39;56.11;100942.63;5089982;28;20028;-81
2022/07/25 02:31:20;;;;;;;0.82;0.65;;;;;;;24.39;55.77;100946.19;5089584;28;20499;-81
2022/07/25 02:33:46;;;;;;;0.00;0.00;;;;;;;24.39;55.67;100942.63;5083540;28;20024;-80
2022/07/25 02:36:13;;;;;;;0.10;0.10;;;;;;;24.37;55.85;100936.44;5079512;28;20475;-81
2022/07/25 02:38:39;;;;;;;0.10;0.10;;;;;;;24.35;56.45;100930.28;5077674;28;20051;-81
2022/07/25 02:41:05;;;;;;;0.10;0.10;;;;;;;24.34;55.84;100931.28;5080397;28;20024;-80
2022/07/25 02:43:31;;;;;;;0.05;0.05;;;;;;;24.33;56.03;100924.13;5081307;28;20040;-81
2022/07/25 02:45:57;;;;;;;0.00;0.00;;;;;;;24.31;56.11;100926.97;5079229;28;20033;-80
2022/07/25 02:48:23;;;;;;;0.03;0.03;;;;;;;24.29;55.71;100923.50;5077518;28;20081;-81
2022/07/25 02:50:49;;;;;;;0.13;0.13;;;;;;;24.27;55.83;100921.91;5081185;28;20050;-81
2022/07/25 02:53:16;;;;;;;0.10;0.10;;;;;;;24.24;56.13;100917.59;5079323;28;20016;-80
2022/07/25 02:55:42;;;;;;;0.10;0.10;;;;;;;24.23;56.40;100916.72;5085099;28;20054;-80
2022/07/25 02:58:08;;;;;;;0.10;0.10;;;;;;;24.25;56.03;100921.16;5080868;28;20392;-80
2022/07/25 03:00:34;;;;;;;0.10;0.10;;;;;;;24.25;56.16;100908.50;5078508;28;20056;-81
2022/07/25 03:03:00;;;;;;;0.10;0.10;;;;;;;24.23;55.98;100911.28;5076690;28;20047;-81
2022/07/25 03:05:26;;;;;;;0.10;0.10;;;;;;;24.21;56.04;100910.56;5083191;28;20101;-81
2022/07/25 03:07:52;;;;;;;0.00;0.00;;;;;;;24.20;56.57;100908.84;5080888;28;20082;-80
2022/07/25 03:10:19;;;;;;;0.00;0.00;;;;;;;24.20;56.55;100903.41;5082941;28;20020;-81
2022/07/25 03:12:45;;;;;;;0.00;0.00;;;;;;;24.20;56.62;100908.84;5076702;28;20025;-80
2022/07/25 03:15:12;;;;;;;0.05;0.05;;;;;;;24.20;56.36;100911.53;5082623;28;20044;-80
2022/07/25 03:17:39;;;;;;;0.40;0.40;;;;;;;24.13;57.94;100910.28;5078501;28;20026;-80
2022/07/25 03:20:07;;;;;;;0.10;0.10;;;;;;;24.17;56.99;100919.03;5081989;28;20078;-81
2022/07/25 03:22:33;;;;;;;0.10;0.10;;;;;;;24.15;57.48;100926.41;5079050;28;20021;-80
2022/07/25 03:25:00;;;;;;;2.50;0.50;;;;;;;24.19;56.38;100917.94;5081803;28;20056;-80
2022/07/25 03:27:26;;;;;;;0.05;0.05;;;;;;;24.22;56.26;100909.59;5073263;28;20051;-81
2022/07/25 03:29:53;;;;;;;0.03;0.03;;;;;;;24.26;56.37;100909.34;5076804;28;20123;-82
2022/07/25 03:32:19;;;;;;;0.10;0.10;;;;;;;24.27;56.36;100911.06;5074902;28;20084;-81
2022/07/25 03:34:45;;;;;;;0.10;0.10;;;;;;;24.24;56.25;100917.59;5078526;28;20594;-80
2022/07/25 03:37:11;;;;;;;0.55;0.55;;;;;;;24.23;56.14;100908.59;5074566;28;20021;-81
2022/07/25 03:39:37;;;;;;;0.00;0.00;;;;;;;24.23;56.30;100914.00;5074934;28;20028;-81
2022/07/25 03:42:04;;;;;;;0.20;0.20;;;;;;;24.23;56.26;100907.75;5075812;28;20039;-80
2022/07/25 03:44:30;;;;;;;0.13;0.13;;;;;;;24.25;56.17;100913.03;5074782;28;20025;-81
2022/07/25 03:46:56;;;;;;;0.20;0.20;;;;;;;24.25;56.01;100905.78;5077061;28;20443;-81
2022/07/25 03:49:22;;;;;;;0.10;0.10;;;;;;;24.23;55.66;100908.59;5078189;28;20036;-81
2022/07/25 03:51:48;;;;;;;0.10;0.10;;;;;;;24.22;55.23;100911.41;5076775;28;20074;-81
2022/07/25 03:54:14;;;;;;;0.20;0.20;;;;;;;24.21;55.40;100921.41;5076394;28;20115;-81
2022/07/25 03:56:44;;;;;;;0.10;0.10;;;;;;;24.22;55.18;100917.72;5077725;28;20075;-81
2022/07/25 03:59:12;;;;;;;0.52;0.52;;;;;;;24.21;55.36;100921.41;5077294;28;20476;-81
2022/07/25 04:01:39;;;;;;;0.52;0.52;;;;;;;24.08;56.32;100917.91;5075981;28;20030;-81
2022/07/25 04:04:05;;;;;;;0.68;0.68;;;;;;;24.16;55.58;100906.47;5076558;28;20097;-80
2022/07/25 04:06:32;;;;;;;0.03;0.03;;;;;;;24.18;55.40;100924.31;5074446;28;20020;-81
2022/07/25 04:08:58;;;;;;;0.43;0.43;;;;;;;24.18;55.65;100916.19;5078328;28;20017;-81
2022/07/25 04:11:24;;;;;;;0.63;0.30;;;;;;;24.19;55.35;100923.34;5076969;28;20029;-80
2022/07/25 04:13:50;;;;;;;0.20;0.20;;;;;;;24.21;55.40;100918.69;5081592;28;20023;-81
2022/07/25 04:16:17;;;;;;;0.10;0.10;;;;;;;24.21;55.26;100913.28;5081854;28;20017;-81
2022/07/25 04:18:43;;;;;;;0.38;0.20;;;;;;;24.26;55.33;100903.94;5081372;28;20033;-81
2022/07/25 04:21:09;;;;;;;0.65;0.52;;;;;;;24.34;55.00;100904.22;5080675;28;20111;-81
2022/07/25 04:23:35;;;;;;;0.90;0.90;;;;;;;24.37;55.03;100903.97;5081016;28;20051;-81
2022/07/25 04:26:02;;;;;;;0.10;0.10;;;;;;;24.43;54.57;100897.22;5081508;28;20063;-81
2022/07/25 04:28:28;;;;;;;0.10;0.10;;;;;;;24.46;54.63;100895.13;5082277;28;20025;-80
2022/07/25 04:30:55;;;;;;;0.57;0.57;;;;;;;24.49;54.50;100908.41;5081484;28;20077;-81
2022/07/25 04:33:21;;;;;;;0.00;0.00;;;;;;;24.49;53.97;100900.28;5080905;28;20074;-81
2022/07/25 04:35:48;;;;;;;0.10;0.10;;;;;;;24.53;53.64;100890.09;5079354;28;20032;-81
2022/07/25 04:38:14;;;;;;;0.30;0.30;;;;;;;24.55;53.51;100890.84;5078643;28;20087;-81
2022/07/25 04:40:41;;;;;;;0.68;0.68;;;;;;;24.57;53.36;100893.41;5074795;28;20499;-80
2022/07/25 04:43:07;;;;;;;0.00;0.00;;;;;;;24.48;53.14;100890.44;5080379;28;20115;-81
2022/07/25 04:45:33;;;;;;;0.10;0.10;;;;;;;24.55;52.83;100898.97;5081889;28;20021;-81
2022/07/25 04:48:00;;;;;;;0.52;0.52;;;;;;;24.49;52.93;100900.28;5080080;28;20029;-81
2022/07/25 04:50:27;;;;;;;0.30;0.30;;;;;;;24.58;52.90;100885.16;5080775;28;20021;-81
2022/07/25 04:52:53;;;;;;;0.25;0.25;;;;;;;24.53;53.09;100893.66;5073737;28;20476;-81
2022/07/25 04:55:19;;;;;;;0.32;0.20;;;;;;;24.59;52.75;100896.88;5078431;28;20029;-81
2022/07/25 04:57:46;;;;;;;3.42;1.65;;;;;;;24.64;52.61;100897.38;5081471;28;20063;-81
2022/07/25 05:00:13;;;;;;;0.20;0.20;;;;;;;24.66;52.46;100895.44;5079542;28;20025;-81
2022/07/25 05:02:40;;;;;;;0.30;0.30;;;;;;;24.71;52.32;100894.09;5077817;28;20115;-81
2022/07/25 05:05:07;;;;;;;0.10;0.10;;;;;;;24.68;51.85;100902.44;5079983;28;20059;-81
2022/07/25 05:07:34;;;;;;;0.00;0.00;;;;;;;24.76;52.01;100895.56;5078400;28;20020;-81
2022/07/25 05:10:01;;;;;;;0.40;0.40;;;;;;;24.79;52.08;100895.34;5081445;28;20024;-81
2022/07/25 05:12:27;;;;;;;0.00;0.00;;;;;;;24.80;51.54;100892.50;5081110;28;20101;-81
2022/07/25 05:14:53;;;;;;;0.00;0.00;;;;;;;24.86;51.28;100883.00;5077190;28;20493;-80
2022/07/25 05:17:20;;;;;;;0.32;0.32;;;;;;;24.92;51.44;100887.06;5078602;28;20025;-81
2022/07/25 05:19:46;;;;;;;0.00;0.00;;;;;;;24.91;51.33;100886.22;5081972;28;20032;-81
2022/07/25 05:22:12;;;;;;;0.45;0.45;;;;;;;24.98;50.98;100886.59;5077079;28;20480;-81
2022/07/25 05:24:38;;;;;;;0.10;0.10;;;;;;;25.03;50.78;100895.19;5079685;28;20434;-81
2022/07/25 05:27:05;;;;;;;0.20;0.20;;;;;;;25.09;50.94;100894.72;5081704;28;20041;-81
2022/07/25 05:29:31;;;;;;;0.65;0.43;;;;;;;25.08;50.63;100892.97;5077894;28;20029;-81
2022/07/25 05:31:58;;;;;;;0.10;0.10;;;;;;;25.16;50.57;100895.94;5080382;28;20024;-80
2022/07/25 05:34:24;;;;;;;0.47;0.47;;;;;;;25.14;49.99;100902.47;5082371;28;20098;-81
2022/07/25 05:36:50;;;;;;;0.10;0.10;;;;;;;25.16;49.75;100901.38;5082046;28;20039;-80
2022/07/25 05:39:16;;;;;;;0.13;0.13;;;;;;;25.08;49.01;100898.41;5076290;28;20097;-80
2022/07/25 05:41:42;;;;;;;0.10;0.10;;;;;;;25.07;49.60;100907.50;5079283;28;20040;-81
2022/07/25 05:44:08;;;;;;;0.75;0.75;;;;;;;25.09;49.26;100908.25;5072567;28;20041;-81
2022/07/25 05:46:34;;;;;;;0.10;0.10;;;;;;;25.19;49.43;100901.09;5080649;28;20040;-81
2022/07/25 05:49:01;;;;;;;0.00;0.00;;;;;;;25.13;49.06;100898.88;5080899;28;20029;-81
2022/07/25 05:51:27;;;;;;;0.00;0.00;;;;;;;25.18;48.60;100901.22;5081003;28;20029;-79
2022/07/25 05:53:53;;;;;;;0.00;0.00;;;;;;;25.20;48.55;100897.41;5083633;28;20035;-81
2022/07/25 05:56:19;;;;;;;0.05;0.05;;;;;;;25.25;48.38;100898.91;5090850;28;20036;-80
2022/07/25 05:58:46;;;;;;;0.20;0.20;;;;;;;25.26;48.43;100903.31;5092402;28;20146;-80
2022/07/25 06:01:14;;;;;;;0.00;0.00;;;;;;;25.30;48.05;100907.53;5087807;28;20038;-79
2022/07/25 06:03:41;;;;;;;0.50;0.50;;;;;;;25.42;48.16;100905.66;5090952;28;20094;-80
2022/07/25 06:06:07;;;;;;;0.00;0.00;;;;;;;25.46;48.09;100908.00;5089950;28;20029;-80
2022/07/25 06:08:34;;;;;;;0.50;0.40;;;;;;;25.40;48.29;100911.22;5090124;28;20035;-79
2022/07/25 06:11:02;;;;;;;3.15;0.70;;;;;;;25.48;48.29;100902.47;5093275;28;20032;-79
2022/07/25 06:13:29;;;;;;;0.00;0.00;;;;;;;25.56;48.43;100901.81;5094052;28;20008;-79
2022/07/25 06:15:55;;;;;;;0.28;0.28;;;;;;;25.48;48.94;100900.63;5092311;28;20051;-80
2022/07/25 06:18:22;;;;;;;0.05;0.05;;;;;;;25.38;49.92;100901.50;5092802;28;20039;-80
2022/07/25 06:20:48;;;;;;;0.00;0.00;;;;;;;25.26;50.67;100914.16;5090451;28;20048;-80
2022/07/25 06:23:15;;;;;;;0.00;0.00;;;;;;;25.33;50.87;100934.38;5091595;28;20044;-80
2022/07/25 06:25:41;;;;;;;0.10;0.10;;;;;;;25.26;51.12;100906.03;5092654;28;20056;-79
2022/07/25 06:28:07;;;;;;;0.00;0.00;;;;;;;25.14;52.04;100911.47;5091373;28;20032;-80
2022/07/25 06:30:34;;;;;;;0.43;0.43;;;;;;;25.17;52.43;100910.34;5089515;28;20028;-81
2022/07/25 06:33:00;;;;;;;0.00;0.00;;;;;;;25.13;52.51;100915.16;5088261;28;20025;-80
2022/07/25 06:35:26;;;;;;;0.10;0.10;;;;;;;25.12;52.72;100910.75;5091123;28;20046;-83
2022/07/25 06:37:52;;;;;;;0.10;0.10;;;;;;;25.10;52.88;100915.41;5090267;28;20044;-80
2022/07/25 06:40:19;;;;;;;0.45;0.45;;;;;;;25.11;53.08;100911.72;5088524;28;20028;-80
2022/07/25 06:42:47;;;;;;;0.45;0.40;;;;;;;24.92;53.95;100920.44;5082855;28;20043;-79
2022/07/25 06:45:14;;;;;;;0.32;0.32;;;;;;;25.04;53.40;100915.91;5083828;28;20029;-80
2022/07/25 06:47:41;;;;;;;0.17;0.17;;;;;;;25.09;54.16;100910.97;5083627;28;20024;-80
2022/07/25 06:50:10;;;;;;;0.10;0.10;;;;;;;25.06;53.70;100908.53;5082286;28;20024;-80
2022/07/25 06:52:36;;;;;;;0.00;0.00;;;;;;;25.01;54.48;100916.13;5079975;28;20470;-79
2022/07/25 06:55:05;;;;;;;0.10;0.10;;;;;;;24.93;54.82;100921.34;5084911;28;20033;-80
2022/07/25 06:57:31;;;;;;;0.57;0.57;;;;;;;24.85;54.72;100913.81;5086220;28;20106;-80
2022/07/25 06:59:57;;;;;;;0.10;0.10;;;;;;;24.84;54.73;100917.50;5082824;28;20047;-80
2022/07/25 07:02:23;;;;;;;0.03;0.03;;;;;;;24.86;55.03;100920.94;5081404;28;20441;-80
2022/07/25 07:04:49;;;;;;;0.28;0.28;;;;;;;24.93;54.67;100924.88;5081898;28;20036;-82
2022/07/25 07:07:17;;;;;;;0.10;0.10;;;;;;;24.98;54.92;100924.53;5077913;28;20039;-82
2022/07/25 07:09:43;;;;;;;0.10;0.10;;;;;;;24.98;54.78;100944.34;5082579;28;20407;-83
2022/07/25 07:12:10;;;;;;;0.00;0.00;;;;;;;24.99;54.96;100920.84;5082217;28;20059;-83
2022/07/25 07:14:36;;;;;;;0.50;0.50;;;;;;;24.95;55.45;100917.50;5077780;28;20029;-83
2022/07/25 07:17:03;;;;;;;0.08;0.08;;;;;;;25.12;55.23;100921.59;5080822;28;20031;-83
2022/07/25 07:19:29;;;;;;;0.10;0.10;;;;;;;25.15;54.74;100910.47;5080357;28;20099;-83
2022/07/25 07:21:55;;;;;;;0.38;0.38;;;;;;;25.04;55.04;100918.63;5087637;28;20033;-83
2022/07/25 07:24:22;;;;;;;0.20;0.20;;;;;;;25.11;54.89;100922.56;5092182;28;20036;-83
2022/07/25 07:26:48;;;;;;;0.00;0.00;;;;;;;25.06;54.93;100926.63;5089171;28;20043;-82
2022/07/25 07:29:14;;;;;;;14.43;1.20;;;;;;;24.95;55.20;100922.94;5089528;28;20054;-83
2022/07/25 07:31:40;;;;;;;0.00;0.00;;;;;;;25.00;55.14;100928.84;5085843;28;20103;-83
2022/07/25 07:34:06;;;;;;;0.00;0.00;;;;;;;24.76;56.34;100930.78;5085881;28;20028;-83
2022/07/25 07:36:32;;;;;;;0.05;0.05;;;;;;;24.98;55.78;100924.53;5090102;28;20037;-82
2022/07/25 07:38:58;;;;;;;1.30;0.52;;;;;;;24.90;56.60;100927.84;5091222;28;20044;-82
2022/07/25 07:41:25;;;;;;;0.05;0.05;;;;;;;24.94;56.24;100939.31;5085078;28;20024;-83
2022/07/25 07:43:51;;;;;;;0.32;0.32;;;;;;;24.97;55.64;100928.22;5086725;28;20046;-83
2022/07/25 07:46:17;;;;;;;0.20;0.20;;;;;;;24.93;55.82;100953.84;5086816;28;20052;-83
2022/07/25 07:48:44;;;;;;;0.40;0.40;;;;;;;25.05;55.98;100936.63;5086261;28;20029;-83
2022/07/25 07:51:10;;;;;;;0.08;0.08;;;;;;;25.14;55.70;100943.16;5084726;28;20151;-81
2022/07/25 07:56:22;;;;;;;0.20;0.20;;;;;;;24.92;56.42;100941.28;5084729;28;20033;-83
2022/07/25 07:58:49;;;;;;;0.10;0.10;;;;;;;24.70;56.62;100941.13;5086655;28;20032;-82
2022/07/25 08:01:15;;;;;;;0.00;0.00;;;;;;;24.80;56.27;100941.28;5085011;28;20039;-83
2022/07/25 08:03:41;;;;;;;1.80;1.65;;;;;;;24.84;56.08;100934.63;5085757;28;20454;-82
2022/07/25 08:06:07;;;;;;;0.00;0.00;;;;;;;24.95;55.88;100931.06;5084959;28;20033;-83
2022/07/25 08:08:34;;;;;;;0.20;0.20;;;;;;;25.14;55.01;100925.00;5088432;28;20054;-83
2022/07/25 08:11:00;;;;;;;0.28;0.10;;;;;;;25.11;54.88;100922.56;5086483;28;20032;-80
2022/07/25 08:13:28;;;;;;;0.00;0.00;;;;;;;25.14;54.68;100925.00;5086993;28;20025;-80
2022/07/25 08:15:57;;;;;;;0.35;0.35;;;;;;;25.29;54.17;100927.50;5087119;28;20033;-80
2022/07/25 08:18:25;;;;;;;0.10;0.10;;;;;;;25.25;53.53;100926.03;5085939;28;20020;-80
2022/07/25 08:20:52;;;;;;;0.85;0.55;;;;;;;25.31;53.73;100930.91;5085399;28;20035;-82
2022/07/25 08:23:18;;;;;;;0.13;0.13;;;;;;;25.58;53.11;100930.53;5086864;28;20047;-83
2022/07/25 08:25:45;;;;;;;0.00;0.00;;;;;;;25.52;53.31;100934.63;5087495;28;20028;-82
2022/07/25 08:28:12;;;;;;;0.10;0.10;;;;;;;25.63;52.94;100930.16;5077314;28;20048;-83
2022/07/25 08:30:40;;;;;;;0.10;0.10;;;;;;;25.66;53.24;100933.50;5075727;28;20028;-82
2022/07/25 08:33:09;;;;;;;0.10;0.10;;;;;;;25.64;52.45;100926.47;5078059;28;20024;-83
2022/07/25 08:35:36;;;;;;;0.10;0.10;;;;;;;25.80;52.16;100923.34;5078588;28;20036;-83
2022/07/25 08:38:03;;;;;;;0.10;0.10;;;;;;;25.96;51.07;100922.94;5083846;28;20056;-83
2022/07/25 08:40:31;;;;;;;0.17;0.17;;;;;;;25.91;50.51;100930.59;5085219;28;20040;-82
2022/07/25 08:42:57;;;;;;;0.10;0.10;;;;;;;25.90;50.83;100940.59;5082061;28;20435;-83
2022/07/25 08:45:25;;;;;;;0.00;0.00;;;;;;;26.00;50.48;100935.25;5082057;28;20086;-83
2022/07/25 08:47:53;;;;;;;0.20;0.20;;;;;;;26.18;50.30;100930.13;5081724;28;20028;-83
2022/07/25 08:50:22;;;;;;;0.05;0.05;;;;;;;26.22;50.30;100941.59;5086627;28;20016;-83
2022/07/25 08:52:50;;;;;;;0.10;0.10;;;;;;;26.22;49.67;100949.75;5069394;28;20020;-83
2022/07/25 08:55:19;;;;;;;0.00;0.00;;;;;;;26.19;49.70;100942.72;5075295;28;20020;-83
2022/07/25 08:57:52;;;;;;;0.20;0.20;;;;;;;26.46;49.70;100939.50;5072498;28;20029;-83
2022/07/25 09:00:21;;;;;;;0.28;0.28;;;;;;;26.45;48.83;100937.78;5072665;28;20028;-83
2022/07/25 09:02:57;;;;;;;0.10;0.10;;;;;;;26.64;48.31;100930.75;5068591;28;20055;-83
2022/07/25 09:05:24;;;;;;;0.00;0.00;;;;;;;26.68;46.94;100924.06;5066166;28;20074;-83
2022/07/25 09:07:51;;;;;;;0.10;0.10;;;;;;;26.94;47.36;100931.81;5074242;28;20039;-83
2022/07/25 09:13:00;;;;;;;0.45;0.40;;;;;;;27.17;46.58;100931.66;5092481;27;20385;-80
2022/07/25 09:15:30;;;;;;;0.10;0.10;;;;;;;27.52;46.21;100919.47;5064361;28;20099;-80
2022/07/25 09:17:58;;;;;;;0.40;0.40;;;;;;;27.58;44.59;100927.91;5055348;28;20025;-81
2022/07/25 09:20:35;;;;;;;0.35;0.35;;;;;;;27.50;44.81;100918.75;5065306;28;20096;-81
2022/07/25 09:23:01;;;;;;;0.22;0.22;;;;;;;27.51;44.46;100934.91;5056343;28;20028;-82
2022/07/25 09:25:28;;;;;;;0.00;0.00;;;;;;;27.63;44.60;100943.84;5057975;28;20025;-81
2022/07/25 09:27:55;;;;;;;0.10;0.10;;;;;;;27.60;44.71;100935.94;5062974;28;20044;-81
2022/07/25 09:30:22;;;;;;;0.10;0.10;;;;;;;27.60;45.54;100935.94;5059253;28;20130;-81
2022/07/25 09:33:00;;;;;;;0.47;0.45;;;;;;;27.41;45.12;100948.50;5059865;28;20509;-82
2022/07/25 09:35:30;;;;;;;0.10;0.10;;;;;;;27.48;45.25;100948.81;5060536;28;20036;-82
2022/07/25 09:38:08;;;;;;;0.10;0.10;;;;;;;27.38;45.19;100959.63;5059605;28;20013;-82
2022/07/25 09:40:34;;;;;;;0.00;0.00;;;;;;;27.23;44.77;100952.84;5060676;28;20029;-81
2022/07/25 09:43:00;;;;;;;0.08;0.08;;;;;;;26.93;45.39;100958.16;5056917;28;20021;-81
2022/07/25 09:45:26;;;;;;;0.00;0.00;;;;;;;26.75;46.22;100966.03;5059181;28;20033;-81
2022/07/25 09:47:56;;;;;;;0.00;0.00;;;;;;;26.69;46.30;100987.44;5053927;28;20029;-82
2022/07/25 09:50:24;;;;;;;0.10;0.10;;;;;;;26.71;46.95;100975.44;5056144;28;20166;-80
2022/07/25 09:52:53;;;;;;;0.10;0.10;;;;;;;26.68;46.54;100988.41;5055883;28;20025;-80
2022/07/25 09:55:20;;;;;;;0.10;0.10;;;;;;;26.43;45.74;100985.97;5055279;28;20033;-80
2022/07/25 09:57:48;;;;;;;0.00;0.00;;;;;;;26.47;45.26;100995.56;5048644;28;20110;-81
2022/07/25 10:00:19;;;;;;;0.00;0.00;;;;;;;26.66;45.41;100998.56;5046708;28;20029;-79
2022/07/25 10:06:21;;;;;;;0.15;0.15;;;;;;;27.01;44.49;100981.94;5029501;27;20390;-81
2022/07/25 10:08:49;;;;;;;0.08;0.08;;;;;;;26.80;43.92;100984.66;5045632;28;20120;-81
2022/07/25 10:11:24;;;;;;;1.42;0.88;;;;;;;27.00;44.00;100996.53;5044880;28;20033;-82
2022/07/25 10:13:52;;;;;;;0.10;0.10;;;;;;;27.22;44.10;101000.94;5034811;28;20110;-82
2022/07/25 10:18:58;;;;;;;0.00;0.00;;;;;;;27.47;43.42;101006.09;5073001;28;20407;-80
2022/07/25 10:21:25;;;;;;;0.68;0.47;;;;;;;27.29;41.99;100990.38;5069802;28;20109;-82
2022/07/25 10:24:02;;;;;;;0.10;0.10;;;;;;;27.19;43.04;101001.22;5071164;28;20032;-82
2022/07/25 10:26:29;;;;;;;0.08;0.08;;;;;;;26.97;43.65;101007.69;5069427;28;20475;-82
2022/07/25 10:28:56;;;;;;;0.10;0.10;;;;;;;26.90;44.35;101003.75;5069649;28;20041;-81
2022/07/25 10:31:27;;;;;;;0.20;0.20;;;;;;;26.58;44.60;101019.13;5068185;28;20025;-80
2022/07/25 10:33:58;;;;;;;0.00;0.00;;;;;;;26.55;45.13;101018.50;5066131;28;20035;-81
2022/07/25 10:36:31;;;;;;;0.00;0.00;;;;;;;26.76;45.42;101018.56;5061264;28;20036;-81
2022/07/25 10:38:59;;;;;;;0.32;0.32;;;;;;;26.70;45.38;101010.91;5051237;28;20058;-81
2022/07/25 10:41:27;;;;;;;0.00;0.00;;;;;;;26.56;45.33;101025.69;5050089;28;20037;-80
2022/07/25 10:43:59;;;;;;;0.10;0.10;;;;;;;26.38;45.70;101028.97;5062592;28;20047;-80
2022/07/25 10:46:29;;;;;;;0.10;0.10;;;;;;;26.33;46.04;101033.88;5062649;28;20036;-81
2022/07/25 10:48:59;;;;;;;0.10;0.10;;;;;;;26.06;47.15;101035.22;5071316;28;20032;-81
2022/07/25 10:51:27;;;;;;;0.10;0.10;;;;;;;25.83;47.63;101031.66;5071405;28;20035;-81
2022/07/25 10:53:53;;;;;;;0.20;0.20;;;;;;;25.79;46.87;101039.16;5064968;28;20029;-81
2022/07/25 10:56:23;;;;;;;1.05;0.85;;;;;;;25.58;46.75;101057.22;5070950;28;20035;-82
2022/07/25 10:58:54;;;;;;;0.00;0.00;;;;;;;25.59;46.36;101050.78;5067845;28;20020;-81
2022/07/25 11:01:23;;;;;;;0.13;0.13;;;;;;;25.48;46.75;101052.53;5069390;28;20060;-78
2022/07/25 11:03:51;;;;;;;0.00;0.00;;;;;;;25.55;46.51;101057.47;5070506;28;20056;-79
2022/07/25 11:09:26;;;;;;;0.20;0.20;;;;;;;25.88;46.60;101042.13;5075911;28;20373;-82
2022/07/25 11:11:56;;;;;;;0.70;0.08;;;;;;;26.04;46.53;101049.88;5048620;28;20033;-82
2022/07/25 11:14:40;;;;;;;0.00;0.00;;;;;;;26.26;46.04;101052.56;5053810;28;20037;-82
2022/07/25 11:20:00;;;;;;;0.52;0.52;;;;;;;26.36;46.46;101057.25;5104568;27;20409;-79
2022/07/25 11:22:27;;;;;;;0.15;0.15;;;;;;;26.16;46.86;101060.63;5083598;28;20028;-80
2022/07/25 11:24:53;;;;;;;0.10;0.10;;;;;;;26.00;47.16;101057.41;5089631;28;20127;-79
2022/07/25 11:27:30;;;;;;;0.30;0.30;;;;;;;26.13;46.96;101063.59;5089554;28;20032;-79
2022/07/25 11:30:18;;;;;;;0.10;0.10;;;;;;;26.19;46.70;101061.38;5089060;28;20028;-79
2022/07/25 11:32:54;;;;;;;0.05;0.05;;;;;;;26.22;45.86;101061.97;5088800;28;20469;-80
2022/07/25 11:35:23;;;;;;;0.00;0.00;;;;;;;26.05;46.33;101060.59;5089609;28;20485;-80
2022/07/25 11:37:51;;;;;;;0.00;0.00;;;;;;;26.09;44.97;101064.81;5087426;28;20027;-79
2022/07/25 11:40:19;;;;;;;0.93;0.90;;;;;;;25.76;44.68;101072.00;5089779;28;20139;-78
2022/07/25 11:42:49;;;;;;;0.10;0.10;;;;;;;26.08;43.76;101056.81;5090978;28;20622;-79
2022/07/25 11:48:12;;;;;;;1.48;0.90;;;;;;;26.13;44.05;101068.16;5106402;27;1197752;-79